Time;durP1;ratioP1;P1;durP2;ratioP2;P2;SDS_P1;SDS_P2;PMS_P1;PMS_P2;Temp;Humidity;BMP_temperature;BMP_pressure;BME280_temperature;BME280_humidity;BME280_pressure;Samples;Min_cycle;Max_cycle;Signal;HPM_P1;HPM_P2
2022/08/19 00:01:38;;;;;;;7.50;5.68;;;21.00;99.90;;;-147.18;100.00;67318.16;5011561;28;20041;-88
2022/08/19 00:04:13;;;;;;;7.68;5.95;;;20.90;99.90;;;-147.18;100.00;67318.16;5003637;28;20070;-88
2022/08/19 00:06:43;;;;;;;10.00;6.30;;;20.90;99.90;;;-147.18;100.00;67318.16;4999153;28;20046;-88
2022/08/19 00:09:14;;;;;;;7.57;5.57;;;20.90;99.90;;;-147.18;100.00;67318.16;5009288;28;20061;-88
2022/08/19 00:11:41;;;;;;;7.78;6.07;;;20.90;99.90;;;-147.18;100.00;67318.16;5012814;28;20042;-88
2022/08/19 00:14:12;;;;;;;8.02;6.18;;;20.90;99.90;;;-147.18;100.00;67318.16;5003560;28;20046;-88
2022/08/19 00:16:43;;;;;;;7.78;6.07;;;20.90;99.90;;;-147.18;100.00;67318.16;5009642;28;20052;-88
2022/08/19 00:19:10;;;;;;;8.52;6.35;;;20.80;99.90;;;-147.18;100.00;67318.16;5011197;28;20129;-88
2022/08/19 00:21:39;;;;;;;10.88;6.55;;;20.90;99.90;;;-147.18;100.00;67318.16;5001943;28;20121;-88
2022/08/19 00:24:07;;;;;;;10.00;6.00;;;20.80;99.90;;;-147.18;100.00;67318.16;5010806;28;20038;-89
2022/08/19 00:26:34;;;;;;;8.80;6.15;;;20.80;99.90;;;-147.18;100.00;67318.16;5009833;28;20042;-87
2022/08/19 00:29:04;;;;;;;8.88;6.10;;;20.80;99.90;;;-147.18;100.00;67318.16;4995960;28;20049;-88
2022/08/19 00:31:31;;;;;;;8.70;6.10;;;20.80;99.90;;;-147.18;100.00;67318.16;4996748;28;20426;-88
2022/08/19 00:34:00;;;;;;;10.27;6.47;;;20.80;99.90;;;-147.18;100.00;67318.16;5010869;28;20108;-88
2022/08/19 00:36:31;;;;;;;8.68;6.75;;;20.70;99.90;;;-147.18;100.00;67318.16;4992008;28;20037;-88
2022/08/19 00:38:59;;;;;;;;;;;20.80;99.90;;;-147.18;100.00;67318.16;5007806;28;20057;-88
2022/08/19 00:41:26;;;;;;;8.93;5.90;;;20.70;99.90;;;-147.18;100.00;67318.16;5002084;28;20359;-88
2022/08/19 00:44:05;;;;;;;8.93;6.35;;;20.70;99.90;;;-147.18;100.00;67318.16;5002419;28;20043;-88
2022/08/19 00:46:36;;;;;;;9.00;6.10;;;20.70;99.90;;;-147.18;100.00;67318.16;4999516;28;20037;-88
2022/08/19 00:49:10;;;;;;;;;;;20.70;99.90;;;-147.18;100.00;67318.16;5005472;28;20041;-88
2022/08/19 00:51:38;;;;;;;9.60;6.90;;;20.70;99.90;;;-147.18;100.00;67318.16;5007063;28;19921;-88
2022/08/19 00:54:06;;;;;;;11.32;7.00;;;20.60;99.90;;;-147.18;100.00;67318.16;5003599;28;20052;-88
2022/08/19 00:56:34;;;;;;;9.23;6.07;;;20.60;99.90;;;-147.18;100.00;67318.16;5007361;28;20041;-88
2022/08/19 00:59:03;;;;;;;8.65;6.47;;;20.60;99.90;;;-147.18;100.00;67318.16;5005790;28;20045;-88
2022/08/19 01:01:30;;;;;;;11.85;6.25;;;20.60;99.90;;;-147.18;100.00;67318.16;5005372;28;20569;-88
2022/08/19 01:03:57;;;;;;;9.93;6.32;;;20.50;99.90;;;-147.18;100.00;67318.16;4989230;28;20046;-88
2022/08/19 01:06:26;;;;;;;10.88;6.30;;;20.50;99.90;;;-147.18;100.00;67318.16;4997525;28;20799;-88
2022/08/19 01:08:54;;;;;;;9.00;6.55;;;20.50;99.90;;;-147.18;100.00;67318.16;5005235;28;20048;-88
2022/08/19 01:11:22;;;;;;;10.48;6.70;;;20.50;99.90;;;-147.18;100.00;67318.16;5005785;28;20141;-88
2022/08/19 01:13:51;;;;;;;10.07;6.50;;;20.50;99.90;;;-147.18;100.00;67318.16;5007098;28;20038;-88
2022/08/19 01:16:21;;;;;;;9.38;7.15;;;20.50;99.90;;;-147.18;100.00;67318.16;4983347;28;20471;-87
2022/08/19 01:18:48;;;;;;;9.30;6.30;;;20.40;99.90;;;-147.18;100.00;67318.16;5006154;28;20498;-88
2022/08/19 01:21:28;;;;;;;9.63;6.88;;;20.40;99.90;;;-147.18;100.00;67318.16;4999045;28;20575;-88
2022/08/19 01:23:56;;;;;;;8.82;6.55;;;20.40;99.90;;;-147.18;100.00;67318.16;5002874;28;20145;-88
2022/08/19 01:26:26;;;;;;;8.23;6.30;;;20.40;99.90;;;-147.18;100.00;67318.16;4994024;28;20494;-89
2022/08/19 01:28:56;;;;;;;9.60;6.85;;;20.40;99.90;;;-147.18;100.00;67318.16;5005641;28;20497;-87
2022/08/19 01:31:30;;;;;;;7.80;6.37;;;20.40;99.90;;;-147.18;100.00;67318.16;4999463;28;20052;-87
2022/08/19 01:33:59;;;;;;;8.38;6.65;;;20.40;99.90;;;-147.18;100.00;67318.16;5001245;28;20277;-87
2022/08/19 01:36:30;;;;;;;9.95;6.97;;;20.30;99.90;;;-147.18;100.00;67318.16;5008392;28;20045;-88
2022/08/19 01:39:01;;;;;;;10.25;7.03;;;20.40;99.90;;;-147.18;100.00;67318.16;5002096;28;20042;-87
2022/08/19 01:41:28;;;;;;;10.55;7.43;;;20.30;99.90;;;-147.18;100.00;67318.16;5009303;28;20042;-88
2022/08/19 01:43:55;;;;;;;10.10;6.85;;;20.30;99.90;;;-147.18;100.00;67318.16;5007181;28;20514;-87
2022/08/19 01:46:23;;;;;;;9.23;6.57;;;20.30;99.90;;;-147.18;100.00;67318.16;5061330;22;20474;-86
2022/08/19 01:48:50;;;;;;;9.23;6.95;;;20.30;99.90;;;-147.18;100.00;67318.16;5032138;28;20053;-86
2022/08/19 01:51:18;;;;;;;9.00;7.03;;;20.30;99.90;;;-147.18;100.00;67318.16;5031641;28;20048;-87
2022/08/19 01:53:50;;;;;;;11.45;6.85;;;20.30;99.90;;;-147.18;100.00;67318.16;5014396;28;20132;-87
2022/08/19 01:56:19;;;;;;;10.85;7.18;;;20.30;99.90;;;-147.18;100.00;67318.16;5032761;28;20565;-86
2022/08/19 01:58:52;;;;;;;9.77;7.32;;;20.20;99.90;;;-147.18;100.00;67318.16;5004035;28;20131;-86
2022/08/19 02:01:19;;;;;;;8.95;6.97;;;20.20;99.90;;;-147.18;100.00;67318.16;5011044;28;20052;-86
2022/08/19 02:03:47;;;;;;;9.18;7.32;;;20.20;99.90;;;-147.18;100.00;67318.16;5003577;28;20050;-86
2022/08/19 02:06:16;;;;;;;9.27;6.90;;;20.20;99.90;;;-147.18;100.00;67318.16;5011858;28;20045;-86
2022/08/19 02:08:45;;;;;;;9.13;6.93;;;20.10;99.90;;;-147.18;100.00;67318.16;5008848;28;20038;-86
2022/08/19 02:11:22;;;;;;;12.68;7.72;;;20.20;99.90;;;-147.18;100.00;67318.16;5009492;28;20050;-86
2022/08/19 02:13:50;;;;;;;11.75;7.22;;;20.10;99.90;;;-147.18;100.00;67318.16;5009997;28;20064;-86
2022/08/19 02:16:18;;;;;;;9.13;7.00;;;20.10;99.90;;;-147.18;100.00;67318.16;5012195;28;20038;-86
2022/08/19 02:18:48;;;;;;;10.77;7.43;;;20.10;99.90;;;-147.18;100.00;67318.16;4993042;28;20046;-86
2022/08/19 02:21:16;;;;;;;10.20;7.38;;;20.10;99.90;;;-147.18;100.00;67318.16;5011340;28;20414;-86
2022/08/19 02:23:43;;;;;;;10.45;7.30;;;20.10;99.90;;;-147.18;100.00;67318.16;5017990;28;20053;-85
2022/08/19 02:26:12;;;;;;;7.40;6.60;;;20.00;99.90;;;-147.18;100.00;67318.16;5011858;28;20081;-86
2022/08/19 02:28:40;;;;;;;9.85;6.43;;;20.10;99.90;;;-147.18;100.00;67318.16;5006152;28;20035;-86
2022/08/19 02:31:11;;;;;;;8.85;6.88;;;20.00;99.90;;;-147.18;100.00;67318.16;5011577;28;20046;-86
2022/08/19 02:33:38;;;;;;;9.52;7.00;;;20.00;99.90;;;-147.18;100.00;67318.16;5006875;28;20034;-86
2022/08/19 02:36:08;;;;;;;8.50;6.70;;;20.00;99.90;;;-147.18;100.00;67318.16;5012627;28;20592;-86
2022/08/19 02:38:36;;;;;;;9.18;6.88;;;20.00;99.90;;;-147.18;100.00;67318.16;5005482;28;20038;-86
2022/08/19 02:41:09;;;;;;;11.05;7.80;;;20.00;99.90;;;-147.18;100.00;67318.16;4991778;28;20046;-86
2022/08/19 02:43:38;;;;;;;10.30;7.13;;;20.00;99.90;;;-147.18;100.00;67318.16;5011014;28;20057;-86
2022/08/19 02:46:20;;;;;;;9.38;6.70;;;20.00;99.90;;;-147.18;100.00;67318.16;5018828;28;20062;-86
2022/08/19 02:48:48;;;;;;;9.48;7.20;;;20.00;99.90;;;-147.18;100.00;67318.16;5013266;28;20410;-86
2022/08/19 02:51:24;;;;;;;9.85;7.68;;;20.00;99.90;;;-147.18;100.00;67318.16;4994769;28;20048;-86
2022/08/19 02:53:52;;;;;;;8.93;6.97;;;20.00;99.90;;;-147.18;100.00;67318.16;5004915;28;20129;-86
2022/08/19 02:56:21;;;;;;;10.43;7.70;;;20.00;99.90;;;-147.18;100.00;67318.16;4992489;28;20038;-86
2022/08/19 02:58:49;;;;;;;9.05;7.05;;;20.00;99.90;;;-147.18;100.00;67318.16;5007703;28;20049;-86
2022/08/19 03:01:24;;;;;;;8.95;7.35;;;20.00;99.90;;;-147.18;100.00;67318.16;5011827;28;20049;-85
2022/08/19 03:03:52;;;;;;;10.80;8.13;;;20.00;99.90;;;-147.18;100.00;67318.16;5012427;28;20050;-85
2022/08/19 03:06:19;;;;;;;10.88;7.63;;;20.00;99.90;;;-147.18;100.00;67318.16;4994187;28;20042;-85
2022/08/19 03:08:48;;;;;;;11.80;7.43;;;20.00;99.90;;;-147.18;100.00;67318.16;5007809;28;20053;-85
2022/08/19 03:11:18;;;;;;;12.27;7.43;;;20.00;99.90;;;-147.18;100.00;67318.16;5016327;28;20100;-86
2022/08/19 03:13:45;;;;;;;9.55;7.72;;;19.90;99.90;;;-147.18;100.00;67318.16;5027107;28;20095;-87
2022/08/19 03:16:13;;;;;;;10.25;7.47;;;19.90;99.90;;;-147.18;100.00;67318.16;4997884;28;20145;-86
2022/08/19 03:18:42;;;;;;;13.10;8.35;;;19.90;99.90;;;-147.18;100.00;67318.16;5008536;28;20040;-86
2022/08/19 03:21:09;;;;;;;11.32;7.40;;;19.90;99.90;;;-147.18;100.00;67318.16;5010721;28;20517;-86
2022/08/19 03:23:37;;;;;;;10.73;7.30;;;19.90;99.90;;;-147.18;100.00;67318.16;5010919;28;20108;-86
2022/08/19 03:26:06;;;;;;;12.55;8.35;;;19.90;99.90;;;-147.18;100.00;67318.16;5008075;28;20053;-86
2022/08/19 03:28:34;;;;;;;9.70;8.05;;;19.90;99.90;;;-147.18;100.00;67318.16;5019094;28;20034;-85
2022/08/19 03:31:05;;;;;;;11.68;8.05;;;19.80;99.90;;;-147.18;100.00;67318.16;5011711;28;20057;-86
2022/08/19 03:33:34;;;;;;;9.90;8.27;;;19.80;99.90;;;-147.18;100.00;67318.16;5012381;28;20121;-86
2022/08/19 03:36:09;;;;;;;11.27;8.00;;;19.80;99.90;;;-147.18;100.00;67318.16;5018693;28;20122;-86
2022/08/19 03:38:39;;;;;;;10.93;8.18;;;19.80;99.90;;;-147.18;100.00;67318.16;5011602;28;20129;-86
2022/08/19 03:41:10;;;;;;;11.23;8.10;;;19.80;99.90;;;-147.18;100.00;67318.16;5008519;28;20057;-86
2022/08/19 03:43:39;;;;;;;9.52;7.97;;;19.80;99.90;;;-147.18;100.00;67318.16;4998610;28;20137;-86
2022/08/19 03:46:11;;;;;;;12.48;7.97;;;19.80;99.90;;;-147.18;100.00;67318.16;5010579;28;20192;-87
2022/08/19 03:48:40;;;;;;;11.23;7.93;;;19.80;99.90;;;-147.18;100.00;67318.16;5011156;28;20112;-86
2022/08/19 03:51:17;;;;;;;10.63;7.95;;;19.80;99.90;;;-147.18;100.00;67318.16;4993146;28;20576;-86
2022/08/19 03:53:44;;;;;;;11.85;8.65;;;19.80;99.90;;;-147.18;100.00;67318.16;5011105;28;20041;-85
2022/08/19 03:56:12;;;;;;;10.85;7.75;;;19.80;99.90;;;-147.18;100.00;67318.16;5006140;28;20038;-85
2022/08/19 03:58:41;;;;;;;11.90;8.50;;;19.80;99.90;;;-147.18;100.00;67318.16;5010800;28;20041;-86
2022/08/19 04:01:11;;;;;;;10.13;8.63;;;19.80;99.90;;;-147.18;100.00;67318.16;5012862;28;20132;-85
2022/08/19 04:03:39;;;;;;;11.17;8.60;;;19.70;99.90;;;-147.18;100.00;67318.16;5026989;28;20038;-85
2022/08/19 04:06:14;;;;;;;12.13;9.10;;;19.70;99.90;;;-147.18;100.00;67318.16;5006703;28;20558;-85
2022/08/19 04:08:43;;;;;;;11.32;9.02;;;19.70;99.90;;;-147.18;100.00;67318.16;5005717;28;20132;-86
2022/08/19 04:11:12;;;;;;;15.95;9.68;;;19.70;99.90;;;-147.18;100.00;67318.16;5012813;28;20041;-85
2022/08/19 04:13:40;;;;;;;12.00;8.75;;;19.70;99.90;;;-147.18;100.00;67318.16;5011372;28;20049;-85
2022/08/19 04:16:09;;;;;;;14.07;9.45;;;19.70;99.90;;;-147.18;100.00;67318.16;5006790;28;20049;-85
2022/08/19 04:18:38;;;;;;;10.70;9.00;;;19.70;99.90;;;-147.18;100.00;67318.16;5019196;28;20398;-86
2022/08/19 04:21:07;;;;;;;12.52;9.25;;;19.70;99.90;;;-147.18;100.00;67318.16;5010539;28;20208;-87
2022/08/19 04:23:36;;;;;;;12.25;9.45;;;19.70;99.90;;;-147.18;100.00;67318.16;5011521;28;20069;-87
2022/08/19 04:26:04;;;;;;;13.70;9.52;;;19.80;99.90;;;-147.18;100.00;67318.16;4996543;28;20077;-83
2022/08/19 04:28:31;;;;;;;12.30;9.30;;;19.60;99.90;;;-147.18;100.00;67318.16;5011292;28;20499;-84
2022/08/19 04:30:59;;;;;;;17.30;10.77;;;19.70;99.90;;;-147.18;100.00;67318.16;4997337;28;20066;-85
2022/08/19 04:33:28;;;;;;;13.73;9.40;;;19.70;99.90;;;-147.18;100.00;67318.16;5003361;28;20042;-85
2022/08/19 04:35:56;;;;;;;11.98;8.77;;;19.70;99.90;;;-147.18;100.00;67318.16;5020554;28;20096;-85
2022/08/19 04:38:23;;;;;;;12.50;9.35;;;19.70;99.90;;;-147.18;100.00;67318.16;5024714;28;20045;-85
2022/08/19 04:43:39;;;;;;;11.43;8.23;;;19.70;99.90;;;-147.18;100.00;67318.16;5006491;28;20049;-84
2022/08/19 04:46:07;;;;;;;11.15;8.32;;;19.60;99.90;;;-147.18;100.00;67318.16;5020679;28;20474;-84
2022/08/19 04:48:35;;;;;;;9.85;7.88;;;19.60;99.90;;;-147.18;100.00;67318.16;5009082;28;20043;-85
2022/08/19 04:51:06;;;;;;;10.02;8.23;;;19.60;99.90;;;-147.18;100.00;67318.16;5000388;28;20045;-85
2022/08/19 04:53:37;;;;;;;10.82;8.32;;;19.60;99.90;;;-147.18;100.00;67318.16;4992797;28;20057;-85
2022/08/19 04:56:09;;;;;;;10.00;7.85;;;19.60;99.90;;;-147.18;100.00;67318.16;5003273;28;20129;-83
2022/08/19 04:58:42;;;;;;;11.18;8.32;;;19.60;99.90;;;-147.18;100.00;67318.16;4992364;28;20388;-85
2022/08/19 05:01:10;;;;;;;10.15;8.32;;;19.70;99.90;;;-147.18;100.00;67318.16;5008525;28;20041;-84
2022/08/19 05:03:37;;;;;;;10.10;8.13;;;19.60;99.90;;;-147.18;100.00;67318.16;5005035;28;20042;-85
2022/08/19 05:06:08;;;;;;;12.07;8.57;;;19.70;99.90;;;-147.18;100.00;67318.16;5002943;28;20085;-85
2022/08/19 05:08:38;;;;;;;11.68;8.50;;;19.70;99.90;;;-147.18;100.00;67318.16;5020252;28;20409;-83
2022/08/19 05:11:12;;;;;;;11.52;8.73;;;19.70;99.90;;;-147.18;100.00;67318.16;5011197;28;20038;-83
2022/08/19 05:13:40;;;;;;;13.30;8.60;;;19.70;99.90;;;-147.18;100.00;67318.16;5006013;28;20120;-83
2022/08/19 05:16:07;;;;;;;11.20;9.07;;;19.70;99.90;;;-147.18;100.00;67318.16;5011008;28;20070;-89
2022/08/19 05:24:08;;;;;;;11.02;8.77;;;19.70;99.90;;;-147.18;100.00;67318.16;4992392;28;20070;-91
2022/08/19 05:26:37;;;;;;;12.63;8.77;;;19.80;99.90;;;-147.18;100.00;67318.16;4999279;28;20073;-91
2022/08/19 05:29:07;;;;;;;11.02;8.13;;;19.80;99.90;;;-147.18;100.00;67318.16;5005735;28;20038;-83
2022/08/19 05:31:36;;;;;;;11.23;8.57;;;19.80;99.90;;;-147.18;100.00;67318.16;4996253;28;20125;-87
2022/08/19 05:34:04;;;;;;;18.17;9.15;;;19.80;99.90;;;-147.18;100.00;67318.16;5002479;28;20056;-86
2022/08/19 05:36:39;;;;;;;10.80;8.43;;;19.80;99.90;;;-147.18;100.00;67318.16;5000116;28;20114;-87
2022/08/19 05:39:07;;;;;;;11.18;8.07;;;19.90;99.90;;;-147.18;100.00;67318.16;4990201;28;20042;-86
2022/08/19 05:41:34;;;;;;;11.60;8.88;;;19.90;99.90;;;-147.18;100.00;67318.16;5018665;28;20046;-87
2022/08/19 05:44:08;;;;;;;13.05;8.38;;;19.90;99.90;;;-147.18;100.00;67318.16;5009873;28;20074;-87
2022/08/19 05:46:37;;;;;;;13.45;8.50;;;19.90;99.90;;;-147.18;100.00;67318.16;5017733;28;20046;-87
2022/08/19 05:49:05;;;;;;;10.00;8.30;;;19.90;99.90;;;-147.18;100.00;67318.16;5008284;28;20439;-86
2022/08/19 05:51:33;;;;;;;13.40;9.05;;;20.00;99.90;;;-147.18;100.00;67318.16;5010908;28;20483;-84
2022/08/19 05:54:01;;;;;;;12.40;8.25;;;20.00;99.90;;;-147.18;100.00;67318.16;5009069;28;20074;-84
2022/08/19 05:56:30;;;;;;;10.77;8.70;;;20.00;99.90;;;-147.18;100.00;67318.16;5006579;28;20037;-84
2022/08/19 05:58:58;;;;;;;11.60;8.75;;;20.00;99.90;;;-147.18;100.00;67318.16;5007374;28;20076;-84
2022/08/19 06:01:27;;;;;;;11.68;9.10;;;20.00;99.90;;;-147.18;100.00;67318.16;4994304;28;20052;-85
2022/08/19 06:03:55;;;;;;;15.18;10.40;;;20.10;99.90;;;-147.18;100.00;67318.16;5029519;28;20517;-85
2022/08/19 06:06:22;;;;;;;15.27;10.55;;;20.10;99.90;;;-147.18;100.00;67318.16;5008332;28;20038;-84
2022/08/19 06:08:50;;;;;;;16.63;12.63;;;20.10;99.90;;;-147.18;100.00;67318.16;5006445;28;20042;-84
2022/08/19 06:11:22;;;;;;;18.27;12.82;;;20.20;99.90;;;-147.18;100.00;67318.16;5021120;28;20033;-84
2022/08/19 06:13:53;;;;;;;19.95;13.38;;;20.20;99.90;;;-147.18;100.00;67318.16;5030044;28;20045;-84
2022/08/19 06:16:22;;;;;;;21.15;14.43;;;20.30;99.90;;;-147.18;100.00;67318.16;5012464;28;20096;-84
2022/08/19 06:18:53;;;;;;;23.85;18.13;;;20.30;99.90;;;-147.18;100.00;67318.16;5012197;28;20136;-85
2022/08/19 06:21:22;;;;;;;26.77;19.10;;;20.40;99.90;;;-147.18;100.00;67318.16;5021103;28;20116;-84
2022/08/19 06:23:50;;;;;;;32.40;22.98;;;20.50;99.90;;;-147.18;100.00;67318.16;5012453;28;20069;-84
2022/08/19 06:26:19;;;;;;;36.33;26.02;;;20.60;99.90;;;-147.18;100.00;67318.16;4993272;28;20052;-85
2022/08/19 06:28:47;;;;;;;34.35;24.60;;;20.70;99.90;;;-147.18;100.00;67318.16;4991400;28;20070;-84
2022/08/19 06:31:16;;;;;;;32.15;23.35;;;20.80;99.90;;;-147.18;100.00;67318.16;5011709;28;20046;-93
2022/08/19 06:33:44;;;;;;;32.92;24.23;;;20.80;99.90;;;-147.18;100.00;67318.16;5013329;28;20042;-92
2022/08/19 06:36:21;;;;;;;36.35;25.45;;;20.90;99.90;;;-147.18;100.00;67318.16;5011375;28;20042;-92
2022/08/19 06:38:48;;;;;;;38.67;26.30;;;20.90;99.90;;;-147.18;100.00;67318.16;5021111;28;20413;-92
2022/08/19 06:41:16;;;;;;;34.55;25.27;;;21.00;99.90;;;-147.18;100.00;67318.16;5012642;28;20080;-92
2022/08/19 06:43:43;;;;;;;34.67;24.95;;;21.00;99.90;;;-147.18;100.00;67318.16;4994692;28;20595;-93
2022/08/19 06:46:13;;;;;;;32.28;23.85;;;21.00;99.90;;;-147.18;100.00;67318.16;5009865;28;20046;-92
2022/08/19 06:48:41;;;;;;;40.20;26.05;;;21.00;99.90;;;-147.18;100.00;67318.16;5011599;28;20041;-91
2022/08/19 06:51:08;;;;;;;36.30;25.92;;;21.00;99.90;;;-147.18;100.00;67318.16;5011824;28;20566;-92
2022/08/19 06:53:39;;;;;;;34.88;25.63;;;21.00;99.90;;;-147.18;100.00;67318.16;5012603;28;20080;-91
2022/08/19 06:56:06;;;;;;;36.95;24.65;;;21.10;99.90;;;-147.18;100.00;67318.16;5009662;28;20066;-93
2022/08/19 06:58:34;;;;;;;36.53;26.13;;;21.10;99.90;;;-147.18;100.00;67318.16;5012695;28;20095;-92
2022/08/19 07:01:03;;;;;;;35.78;26.25;;;21.10;99.90;;;-147.18;100.00;67318.16;5009033;28;20114;-91
2022/08/19 07:03:34;;;;;;;36.58;25.88;;;21.10;99.90;;;-147.18;100.00;67318.16;5032395;28;20064;-92
2022/08/19 07:06:05;;;;;;;38.10;27.05;;;21.10;99.90;;;-147.18;100.00;67318.16;4997487;28;20041;-93
2022/08/19 07:08:33;;;;;;;38.05;26.58;;;21.20;99.90;;;-147.18;100.00;67318.16;5012855;28;20048;-92
2022/08/19 07:11:02;;;;;;;43.33;29.02;;;21.20;99.90;;;-147.18;100.00;67318.16;5010920;28;20126;-93
2022/08/19 07:13:32;;;;;;;42.05;27.95;;;21.20;99.90;;;-147.18;100.00;67318.16;5012179;28;20045;-93
2022/08/19 07:15:59;;;;;;;42.67;28.02;;;21.20;99.90;;;-147.18;100.00;67318.16;5009773;28;20049;-93
2022/08/19 07:18:26;;;;;;;41.00;27.15;;;21.30;99.90;;;-147.18;100.00;67318.16;5011617;28;20045;-92
2022/08/19 07:21:05;;;;;;;40.13;27.25;;;21.30;99.90;;;-147.18;100.00;67318.16;4993040;28;20049;-90
2022/08/19 07:23:32;;;;;;;38.50;29.13;;;21.30;99.90;;;-147.18;100.00;67318.16;4995609;28;20592;-95
2022/08/19 07:26:07;;;;;;;39.22;28.67;;;21.40;99.90;;;-147.18;100.00;67318.16;5008599;28;20085;-92
2022/08/19 07:46:21;;;;;;;41.60;28.27;;;21.70;99.90;;;-147.18;100.00;67318.16;766122;23;20308;-83
2022/08/19 07:48:50;;;;;;;41.20;30.45;;;21.70;99.90;;;-147.18;100.00;67318.16;4999958;28;20045;-83
2022/08/19 07:51:22;;;;;;;45.15;32.20;;;21.80;99.90;;;-147.18;100.00;67318.16;5020287;28;20084;-83
2022/08/19 07:53:50;;;;;;;;;;;21.80;99.90;;;-147.18;100.00;67318.16;5000015;28;20164;-83
2022/08/19 07:56:19;;;;;;;49.45;33.90;;;21.80;99.90;;;-147.18;100.00;67318.16;5008382;28;19921;-83
2022/08/19 07:58:49;;;;;;;49.10;33.85;;;21.90;99.90;;;-147.18;100.00;67318.16;5011050;28;20498;-83
2022/08/19 08:01:21;;;;;;;46.40;35.08;;;21.90;99.90;;;-147.18;100.00;67318.16;5005440;28;20121;-83
2022/08/19 08:09:27;;;;;;;50.15;35.97;;;21.90;99.90;;;-147.18;100.00;67318.16;4985141;28;20057;-84
2022/08/19 08:11:57;;;;;;;48.28;35.75;;;22.00;99.90;;;-147.18;100.00;67318.16;5010311;28;20073;-83
2022/08/19 08:14:29;;;;;;;54.07;39.10;;;22.00;99.90;;;-147.18;100.00;67318.16;5007910;28;20038;-84
2022/08/19 08:16:58;;;;;;;50.85;38.05;;;22.00;99.90;;;-147.18;100.00;67318.16;4999912;28;20442;-83
2022/08/19 08:19:28;;;;;;;56.28;38.40;;;22.00;99.90;;;-147.18;100.00;67318.16;5009503;28;20147;-83
2022/08/19 08:21:58;;;;;;;50.25;36.53;;;22.10;99.90;;;-147.18;100.00;67318.16;5010444;28;20118;-83
2022/08/19 08:24:26;;;;;;;52.92;37.70;;;22.20;99.90;;;-147.18;100.00;67318.16;5005651;28;20283;-83
2022/08/19 08:26:54;;;;;;;54.33;38.47;;;22.30;99.90;;;-147.18;100.00;67318.16;5010147;28;20048;-83
2022/08/19 08:29:21;;;;;;;58.92;39.45;;;22.40;99.90;;;-147.18;100.00;67318.16;5009129;28;20042;-83
2022/08/19 08:31:49;;;;;;;57.75;38.10;;;22.60;99.90;;;-147.18;100.00;67318.16;5005097;28;20072;-83
2022/08/19 08:34:17;;;;;;;52.92;38.03;;;22.70;99.90;;;-147.18;100.00;67318.16;4999661;28;20041;-83
2022/08/19 08:36:46;;;;;;;50.58;36.20;;;22.80;99.90;;;-147.18;100.00;67318.16;5015725;28;20571;-83
2022/08/19 08:39:15;;;;;;;58.53;44.45;;;22.90;99.90;;;-147.18;100.00;67318.16;5010762;28;20069;-84
2022/08/19 08:41:53;;;;;;;51.28;35.15;;;22.90;99.90;;;-147.18;100.00;67318.16;5009223;28;20046;-83
2022/08/19 08:44:39;;;;;;;47.47;34.78;;;23.00;99.90;;;-147.18;100.00;67318.16;4989064;28;20034;-83
2022/08/19 08:47:15;;;;;;;48.05;33.03;;;23.00;99.90;;;-147.18;100.00;67318.16;5003873;28;20069;-83
2022/08/19 08:49:51;;;;;;;43.38;31.95;;;23.10;99.90;;;-147.18;100.00;67318.16;5015614;28;20072;-83
2022/08/19 08:52:24;;;;;;;41.78;30.27;;;23.10;99.90;;;-147.18;100.00;67318.16;4999505;28;20042;-83
2022/08/19 08:55:02;;;;;;;50.55;31.80;;;23.10;99.90;;;-147.18;100.00;67318.16;5001975;28;20715;-83
2022/08/19 08:57:36;;;;;;;42.88;27.55;;;23.10;99.90;;;-147.18;100.00;67318.16;5010476;28;20035;-83
2022/08/19 09:00:08;;;;;;;36.13;25.90;;;23.20;99.90;;;-147.18;100.00;67318.16;4997879;28;20054;-83
2022/08/19 09:02:36;;;;;;;33.45;24.33;;;23.20;99.90;;;-147.18;100.00;67318.16;5014257;28;20060;-83
2022/08/19 09:05:09;;;;;;;32.53;22.30;;;23.30;99.90;;;-147.18;100.00;67318.16;5013358;28;20398;-83
2022/08/19 09:07:50;;;;;;;26.30;19.92;;;23.40;99.90;;;-147.18;100.00;67318.16;5007506;28;20042;-83
2022/08/19 09:10:26;;;;;;;30.85;20.83;;;23.50;99.90;;;-147.18;100.00;67318.16;5009846;28;20116;-83
2022/08/19 09:13:09;;;;;;;27.13;18.48;;;23.60;99.90;;;-147.18;100.00;67318.16;5009438;28;20050;-83
2022/08/19 09:15:45;;;;;;;24.33;18.73;;;23.60;99.90;;;-147.18;100.00;67318.16;5001523;28;20863;-83
2022/08/19 09:18:13;;;;;;;22.17;16.85;;;23.70;99.90;;;-147.18;100.00;67318.16;5010599;28;20034;-84
2022/08/19 09:20:41;;;;;;;21.52;16.92;;;23.70;99.90;;;-147.18;100.00;67318.16;5015482;28;20041;-84
2022/08/19 09:23:10;;;;;;;22.35;17.33;;;23.70;99.90;;;-147.18;100.00;67318.16;5010371;28;20088;-83
2022/08/19 09:25:39;;;;;;;32.05;16.50;;;23.70;99.90;;;-147.18;100.00;67318.16;5006357;28;20037;-83
2022/08/19 09:28:07;;;;;;;23.38;16.25;;;23.60;99.90;;;-147.18;100.00;67318.16;5016909;28;20413;-83
2022/08/19 09:30:40;;;;;;;23.10;14.85;;;23.60;99.90;;;-147.18;100.00;67318.16;5014527;28;20038;-84
2022/08/19 09:33:08;;;;;;;26.08;16.90;;;23.70;99.90;;;-147.18;100.00;67318.16;5010238;28;20053;-83
2022/08/19 09:35:36;;;;;;;19.27;15.07;;;23.70;99.90;;;-147.18;100.00;67318.16;5000808;28;20513;-83
2022/08/19 09:38:05;;;;;;;23.05;15.25;;;23.70;99.90;;;-147.18;100.00;67318.16;5018414;28;20104;-83
2022/08/19 09:40:32;;;;;;;23.10;14.63;;;23.80;99.90;;;-147.18;100.00;67318.16;5020775;28;20042;-83
2022/08/19 09:43:02;;;;;;;22.08;14.13;;;23.90;99.90;;;-147.18;100.00;67318.16;5012322;28;20073;-83
2022/08/19 09:45:30;;;;;;;15.95;12.30;;;23.90;99.90;;;-147.18;100.00;67318.16;5020494;28;20038;-83
2022/08/19 09:47:57;;;;;;;16.65;11.80;;;23.90;99.20;;;-147.18;100.00;67318.16;5002231;28;20050;-84
2022/08/19 09:50:25;;;;;;;22.15;12.90;;;23.90;98.80;;;-147.18;100.00;67318.16;5003069;28;20045;-83
2022/08/19 09:52:57;;;;;;;18.05;12.60;;;24.00;98.00;;;-147.18;100.00;67318.16;4999823;28;20077;-83
2022/08/19 09:55:26;;;;;;;19.52;12.65;;;24.10;97.80;;;-147.18;100.00;67318.16;4997156;28;20092;-84
2022/08/19 09:57:55;;;;;;;23.17;14.02;;;24.10;98.30;;;-147.18;100.00;67318.16;5009144;28;20521;-83
2022/08/19 10:00:22;;;;;;;19.67;14.88;;;24.10;98.10;;;-147.18;100.00;67318.16;5008002;28;20052;-83
2022/08/19 10:02:49;;;;;;;19.88;13.85;;;24.10;97.30;;;-147.18;100.00;67318.16;5008585;28;20046;-83
2022/08/19 10:08:04;;;;;;;18.70;13.05;;;24.10;97.70;;;-147.18;100.00;67318.16;5004066;28;20054;-84
2022/08/19 10:10:36;;;;;;;20.15;13.98;;;24.10;97.10;;;-147.18;100.00;67318.16;4997381;28;20038;-85
2022/08/19 10:13:04;;;;;;;22.58;17.15;;;24.20;97.80;;;-147.18;100.00;67318.16;5004415;28;20117;-85
2022/08/19 10:15:31;;;;;;;18.98;13.80;;;24.30;97.20;;;-147.18;100.00;67318.16;5007348;28;20068;-84
2022/08/19 10:17:58;;;;;;;24.20;15.60;;;24.30;97.90;;;-147.18;100.00;67318.16;5009449;28;20042;-84
2022/08/19 10:20:25;;;;;;;24.35;16.73;;;24.30;97.70;;;-147.18;100.00;67318.16;5008852;28;20034;-85
2022/08/19 10:22:53;;;;;;;27.25;19.60;;;24.30;96.60;;;-147.18;100.00;67318.16;5008356;28;20073;-85
2022/08/19 10:25:20;;;;;;;30.83;19.13;;;24.30;96.40;;;-147.18;100.00;67318.16;5008739;28;20034;-87
2022/08/19 10:27:48;;;;;;;23.38;17.02;;;24.30;95.70;;;-147.18;100.00;67318.16;5016741;28;20160;-88
2022/08/19 10:30:15;;;;;;;25.25;16.88;;;24.10;96.30;;;-147.18;100.00;67318.16;5009904;28;20054;-88
2022/08/19 10:32:44;;;;;;;28.70;18.90;;;24.20;97.30;;;-147.18;100.00;67318.16;4994356;28;20498;-86
2022/08/19 10:35:12;;;;;;;22.52;16.40;;;24.20;96.90;;;-147.18;100.00;67318.16;5009477;28;20042;-86
2022/08/19 10:37:40;;;;;;;24.95;18.05;;;24.20;96.50;;;-147.18;100.00;67318.16;5013004;28;20046;-87